createdAt,value
2022-12-27T00:00:40.768Z,0.40
2022-12-27T00:01:40.715Z,0.30
2022-12-27T00:02:40.748Z,0.30
2022-12-27T00:03:40.664Z,0.30
2022-12-27T00:04:40.653Z,0.30
2022-12-27T00:05:40.644Z,0.30
2022-12-27T00:06:40.652Z,0.40
2022-12-27T00:07:40.624Z,0.30
2022-12-27T00:08:40.601Z,0.20
2022-12-27T00:09:40.618Z,0.20
2022-12-27T00:10:40.572Z,0.30
2022-12-27T00:11:40.592Z,0.40
2022-12-27T00:12:40.551Z,0.30
2022-12-27T00:13:40.537Z,0.40
2022-12-27T00:14:40.539Z,0.30
2022-12-27T00:15:40.550Z,0.50
2022-12-27T00:16:40.594Z,0.30
2022-12-27T00:17:40.488Z,0.50
2022-12-27T00:18:40.479Z,0.30
2022-12-27T00:19:40.471Z,0.20
2022-12-27T00:20:40.469Z,0.30
2022-12-27T00:21:40.439Z,0.40
2022-12-27T00:22:40.424Z,0.40
2022-12-27T00:23:40.412Z,0.30
2022-12-27T00:24:40.401Z,0.40
2022-12-27T00:25:40.395Z,0.20
2022-12-27T00:26:40.417Z,0.30
2022-12-27T00:27:40.381Z,0.40
2022-12-27T00:28:40.358Z,0.40
2022-12-27T00:29:40.335Z,0.40
2022-12-27T00:30:40.320Z,0.40
2022-12-27T00:31:40.410Z,0.40
2022-12-27T00:32:40.315Z,0.30
2022-12-27T00:33:40.303Z,0.30
2022-12-27T00:34:40.286Z,0.50
2022-12-27T00:35:40.270Z,0.60
2022-12-27T00:36:40.260Z,0.60
2022-12-27T00:37:40.239Z,0.30
2022-12-27T00:38:40.226Z,0.30
2022-12-27T00:39:40.218Z,0.40
2022-12-27T00:40:40.226Z,0.40
2022-12-27T00:41:40.223Z,0.30
2022-12-27T00:42:40.166Z,0.30
2022-12-27T00:43:40.171Z,0.30
2022-12-27T00:44:40.149Z,0.60
2022-12-27T00:45:40.184Z,0.40
2022-12-27T00:46:40.114Z,0.40
2022-12-27T00:47:40.112Z,0.40
2022-12-27T00:48:40.119Z,0.40
2022-12-27T00:49:40.091Z,0.30
2022-12-27T00:50:40.085Z,0.40
2022-12-27T00:51:40.057Z,0.40
2022-12-27T00:52:40.073Z,0.50
2022-12-27T00:53:40.038Z,0.40
2022-12-27T00:54:40.076Z,0.30
2022-12-27T00:55:40.032Z,0.30
2022-12-27T00:56:40.006Z,0.40
2022-12-27T00:57:39.987Z,0.30
2022-12-27T00:58:41.034Z,0.30
2022-12-27T00:59:39.979Z,0.30
2022-12-27T01:00:39.948Z,0.40
2022-12-27T01:01:40.070Z,0.40
2022-12-27T01:02:39.925Z,0.40
2022-12-27T01:03:39.954Z,0.30
2022-12-27T01:04:39.898Z,0.40
2022-12-27T01:05:39.877Z,0.80
2022-12-27T01:06:39.876Z,0.60
2022-12-27T01:07:39.864Z,0.50
2022-12-27T01:08:39.854Z,0.40
2022-12-27T01:09:39.845Z,0.40
2022-12-27T01:10:39.823Z,0.70
2022-12-27T01:11:39.806Z,0.50
2022-12-27T01:12:39.791Z,0.50
2022-12-27T01:13:39.790Z,0.50
2022-12-27T01:14:39.804Z,0.50
2022-12-27T01:15:39.779Z,0.50
2022-12-27T01:16:39.810Z,0.40
2022-12-27T01:17:39.728Z,0.70
2022-12-27T01:18:39.731Z,0.60
2022-12-27T01:19:39.713Z,0.50
2022-12-27T01:20:39.696Z,0.40
2022-12-27T01:21:39.684Z,0.60
2022-12-27T01:22:39.677Z,0.70
2022-12-27T01:23:39.655Z,0.50
2022-12-27T01:24:39.670Z,0.60
2022-12-27T01:25:39.626Z,0.40
2022-12-27T01:26:39.629Z,0.60
2022-12-27T01:27:39.631Z,0.50
2022-12-27T01:28:39.594Z,0.60
2022-12-27T01:29:39.636Z,0.40
2022-12-27T01:30:39.567Z,0.60
2022-12-27T01:31:39.605Z,0.50
2022-12-27T01:32:39.560Z,0.60
2022-12-27T01:33:39.535Z,0.90
2022-12-27T01:34:39.534Z,0.40
2022-12-27T01:35:39.512Z,0.50
2022-12-27T01:36:39.516Z,0.50
2022-12-27T01:37:39.483Z,0.50
2022-12-27T01:38:39.484Z,0.40
2022-12-27T01:39:39.462Z,0.40
2022-12-27T01:40:39.446Z,0.40
2022-12-27T01:41:39.435Z,0.40
2022-12-27T01:42:39.433Z,0.40
2022-12-27T01:43:39.403Z,0.70
2022-12-27T01:44:39.451Z,0.70
2022-12-27T01:45:39.431Z,0.50
2022-12-27T01:46:39.370Z,0.50
2022-12-27T01:47:39.353Z,0.50
2022-12-27T01:48:39.343Z,0.50
2022-12-27T01:49:39.336Z,0.70
2022-12-27T01:50:39.336Z,0.70
2022-12-27T01:51:39.313Z,0.70
2022-12-27T01:52:39.289Z,0.50
2022-12-27T01:53:39.287Z,0.40
2022-12-27T01:54:39.272Z,0.70
2022-12-27T01:55:39.268Z,0.50
2022-12-27T01:56:39.253Z,0.50
2022-12-27T01:57:39.228Z,0.50
2022-12-27T01:58:39.217Z,0.50
2022-12-27T01:59:39.228Z,0.60
2022-12-27T02:00:39.197Z,0.50
2022-12-27T02:01:39.304Z,0.60
2022-12-27T02:02:39.281Z,0.60
2022-12-27T02:03:39.153Z,0.60
2022-12-27T02:04:39.169Z,0.40
2022-12-27T02:05:39.158Z,0.70
2022-12-27T02:06:39.114Z,0.60
2022-12-27T02:07:39.110Z,0.40
2022-12-27T02:08:39.087Z,0.50
2022-12-27T02:09:39.072Z,0.40
2022-12-27T02:10:39.061Z,0.50
2022-12-27T02:11:39.043Z,0.70
2022-12-27T02:12:39.058Z,0.80
2022-12-27T02:13:39.046Z,0.50
2022-12-27T02:14:39.039Z,0.60
2022-12-27T02:15:39.004Z,0.70
2022-12-27T02:16:39.000Z,0.60
2022-12-27T02:17:38.973Z,0.50
2022-12-27T02:18:38.965Z,0.70
2022-12-27T02:19:38.965Z,0.50
2022-12-27T02:20:38.945Z,0.60
2022-12-27T02:21:38.920Z,0.60
2022-12-27T02:22:38.912Z,0.50
2022-12-27T02:23:40.056Z,0.50
2022-12-27T02:24:38.883Z,0.50
2022-12-27T02:25:38.883Z,0.70
2022-12-27T02:26:38.858Z,0.70
2022-12-27T02:27:38.849Z,0.50
2022-12-27T02:28:38.836Z,0.50
2022-12-27T02:29:38.816Z,0.80
2022-12-27T02:30:38.823Z,0.70
2022-12-27T02:31:38.821Z,0.90
2022-12-27T02:32:38.828Z,0.50
2022-12-27T02:33:38.794Z,0.60
2022-12-27T02:34:38.765Z,0.50
2022-12-27T02:35:38.759Z,0.60
2022-12-27T02:36:38.756Z,0.50
2022-12-27T02:37:38.715Z,0.60
2022-12-27T02:38:38.729Z,0.70
2022-12-27T02:39:38.712Z,0.60
2022-12-27T02:40:38.683Z,0.70
2022-12-27T02:41:38.683Z,0.80
2022-12-27T02:42:38.656Z,0.60
2022-12-27T02:43:38.651Z,0.60
2022-12-27T02:44:38.631Z,0.70
2022-12-27T02:45:38.616Z,0.70
2022-12-27T02:46:38.666Z,0.70
2022-12-27T02:47:38.583Z,0.70
2022-12-27T02:48:38.580Z,0.60
2022-12-27T02:49:38.560Z,0.60
2022-12-27T02:50:38.553Z,0.50
2022-12-27T02:51:38.543Z,0.50
2022-12-27T02:52:38.534Z,0.60
2022-12-27T02:53:38.517Z,0.40
2022-12-27T02:54:38.508Z,0.70
2022-12-27T02:55:38.516Z,0.70
2022-12-27T02:56:38.479Z,0.90
2022-12-27T02:57:38.475Z,0.70
2022-12-27T02:58:38.452Z,1.20
2022-12-27T02:59:38.435Z,0.90
2022-12-27T03:00:38.430Z,1.10
2022-12-27T03:01:38.535Z,1.00
2022-12-27T03:02:38.513Z,0.70
2022-12-27T03:03:44.049Z,0.90
2022-12-27T03:04:38.405Z,0.80
2022-12-27T03:05:38.358Z,1.10
2022-12-27T03:06:38.353Z,0.70
2022-12-27T03:07:38.335Z,0.70
2022-12-27T03:08:38.337Z,0.60
2022-12-27T03:09:38.306Z,0.40
2022-12-27T03:10:38.339Z,0.60
2022-12-27T03:11:38.283Z,0.70
2022-12-27T03:12:38.296Z,0.60
2022-12-27T03:13:38.275Z,0.50
2022-12-27T03:14:38.269Z,0.50
2022-12-27T03:15:38.263Z,0.50
2022-12-27T03:16:38.237Z,0.60
2022-12-27T03:17:38.205Z,0.50
2022-12-27T03:18:38.193Z,0.60
2022-12-27T03:19:38.199Z,0.60
2022-12-27T03:20:38.174Z,0.60
2022-12-27T03:21:38.158Z,0.70
2022-12-27T03:22:38.170Z,0.50
2022-12-27T03:23:38.127Z,0.60
2022-12-27T03:24:38.144Z,0.60
2022-12-27T03:25:38.110Z,0.80
2022-12-27T03:26:38.093Z,0.60
2022-12-27T03:27:38.097Z,0.60
2022-12-27T03:28:38.080Z,0.60
2022-12-27T03:29:38.065Z,0.80
2022-12-27T03:30:38.096Z,0.60
2022-12-27T03:31:38.048Z,0.60
2022-12-27T03:32:38.016Z,0.60
2022-12-27T03:33:38.052Z,0.70
2022-12-27T03:34:38.004Z,0.80
2022-12-27T03:35:38.015Z,0.70
2022-12-27T03:36:37.972Z,0.70
2022-12-27T03:37:37.963Z,0.70
2022-12-27T03:38:37.966Z,0.80
2022-12-27T03:39:37.957Z,0.50
2022-12-27T03:40:37.921Z,0.40
2022-12-27T03:41:37.913Z,0.80
2022-12-27T03:42:37.904Z,0.80
2022-12-27T03:43:37.883Z,0.70
2022-12-27T03:44:37.865Z,0.50
2022-12-27T03:45:37.855Z,0.60
2022-12-27T03:46:37.888Z,0.50
2022-12-27T03:47:37.861Z,0.50
2022-12-27T03:48:37.819Z,0.70
2022-12-27T03:49:37.811Z,0.90
2022-12-27T03:50:37.787Z,0.80
2022-12-27T03:51:37.870Z,0.60
2022-12-27T03:52:37.781Z,1.00
2022-12-27T03:53:37.791Z,0.80
2022-12-27T03:54:37.767Z,0.60
2022-12-27T03:55:37.748Z,0.60
2022-12-27T03:56:37.714Z,0.70
2022-12-27T03:57:37.738Z,0.80
2022-12-27T03:58:37.714Z,0.70
2022-12-27T03:59:37.679Z,0.60
2022-12-27T04:00:37.665Z,0.70
2022-12-27T04:01:37.763Z,0.80
2022-12-27T04:02:37.747Z,0.60
2022-12-27T04:03:37.735Z,0.50
2022-12-27T04:04:37.641Z,0.50
2022-12-27T04:05:37.612Z,0.60
2022-12-27T04:06:37.626Z,0.60
2022-12-27T04:07:37.578Z,0.80
2022-12-27T04:08:37.593Z,0.70
2022-12-27T04:09:37.569Z,0.60
2022-12-27T04:10:37.532Z,0.50
2022-12-27T04:11:37.523Z,0.70
2022-12-27T04:12:37.509Z,0.60
2022-12-27T04:13:37.530Z,0.70
2022-12-27T04:14:37.490Z,0.50
2022-12-27T04:15:37.556Z,0.80
2022-12-27T04:16:37.461Z,0.50
2022-12-27T04:17:37.454Z,0.80
2022-12-27T04:18:37.448Z,0.90
2022-12-27T04:19:37.428Z,0.70
2022-12-27T04:20:37.409Z,0.80
2022-12-27T04:21:37.425Z,0.80
2022-12-27T04:22:37.384Z,0.70
2022-12-27T04:23:37.382Z,0.90
2022-12-27T04:24:37.384Z,0.90
2022-12-27T04:25:37.359Z,0.50
2022-12-27T04:26:37.344Z,0.60
2022-12-27T04:27:37.360Z,0.40
2022-12-27T04:28:37.335Z,0.70
2022-12-27T04:29:37.318Z,0.60
2022-12-27T04:30:37.296Z,0.60
2022-12-27T04:31:37.362Z,0.90
2022-12-27T04:32:37.284Z,0.50
2022-12-27T04:33:37.265Z,0.70
2022-12-27T04:34:37.233Z,0.90
2022-12-27T04:35:37.213Z,1.00
2022-12-27T04:36:37.219Z,0.80
2022-12-27T04:37:37.214Z,0.50
2022-12-27T04:38:37.188Z,0.70
2022-12-27T04:39:37.172Z,1.00
2022-12-27T04:40:37.155Z,0.80
2022-12-27T04:41:37.143Z,0.70
2022-12-27T04:42:37.135Z,0.80
2022-12-27T04:43:37.134Z,0.90
2022-12-27T04:44:37.146Z,0.80
2022-12-27T04:45:37.109Z,0.70
2022-12-27T04:46:37.144Z,0.70
2022-12-27T04:47:37.081Z,0.70
2022-12-27T04:48:37.058Z,0.70
2022-12-27T04:49:37.038Z,0.70
2022-12-27T04:50:37.060Z,1.00
2022-12-27T04:51:37.012Z,0.80
2022-12-27T04:52:37.002Z,0.70
2022-12-27T04:53:36.993Z,0.70
2022-12-27T04:54:36.982Z,0.80
2022-12-27T04:55:36.970Z,0.80
2022-12-27T04:56:36.953Z,0.70
2022-12-27T04:57:36.955Z,0.60
2022-12-27T04:58:36.929Z,0.90
2022-12-27T04:59:36.940Z,0.90
2022-12-27T05:00:36.891Z,0.60
2022-12-27T05:01:36.989Z,0.80
2022-12-27T05:02:37.048Z,0.60
2022-12-27T05:03:36.960Z,0.50
2022-12-27T05:04:38.687Z,0.70
2022-12-27T05:05:36.841Z,0.50
2022-12-27T05:06:36.829Z,0.70
2022-12-27T05:07:36.810Z,0.70
2022-12-27T05:08:36.806Z,0.50
2022-12-27T05:09:36.787Z,0.70
2022-12-27T05:10:36.769Z,0.60
2022-12-27T05:11:36.763Z,0.70
2022-12-27T05:12:36.749Z,0.40
2022-12-27T05:13:36.761Z,0.70
2022-12-27T05:14:36.717Z,0.90
2022-12-27T05:15:36.701Z,0.80
2022-12-27T05:16:36.724Z,0.40
2022-12-27T05:17:36.694Z,0.90
2022-12-27T05:18:36.661Z,0.50
2022-12-27T05:19:36.651Z,0.40
2022-12-27T05:20:36.666Z,0.50
2022-12-27T05:21:36.616Z,0.40
2022-12-27T05:22:36.635Z,0.50
2022-12-27T05:23:36.593Z,0.60
2022-12-27T05:24:36.584Z,0.50
2022-12-27T05:25:36.596Z,0.70
2022-12-27T05:26:36.553Z,0.60
2022-12-27T05:27:36.573Z,0.50
2022-12-27T05:28:36.535Z,0.50
2022-12-27T05:29:36.511Z,0.50
2022-12-27T05:30:36.517Z,0.50
2022-12-27T05:31:36.558Z,0.40
2022-12-27T05:32:36.494Z,0.40
2022-12-27T05:33:36.461Z,0.40
2022-12-27T05:34:36.458Z,0.70
2022-12-27T05:35:36.434Z,0.70
2022-12-27T05:36:36.424Z,0.80
2022-12-27T05:37:36.421Z,0.60
2022-12-27T05:38:36.398Z,1.20
2022-12-27T05:39:36.406Z,0.90
2022-12-27T05:40:36.360Z,0.60
2022-12-27T05:41:36.369Z,0.50
2022-12-27T05:42:36.345Z,0.50
2022-12-27T05:43:36.360Z,0.60
2022-12-27T05:44:36.313Z,0.50
2022-12-27T05:45:36.304Z,0.70
2022-12-27T05:46:36.336Z,0.40
2022-12-27T05:47:36.306Z,0.50
2022-12-27T05:48:36.275Z,0.40
2022-12-27T05:49:36.271Z,0.70
2022-12-27T05:50:36.268Z,0.60
2022-12-27T05:51:36.229Z,0.40
2022-12-27T05:52:40.746Z,0.40
2022-12-27T05:53:36.217Z,0.50
2022-12-27T05:54:36.219Z,0.70
2022-12-27T05:55:36.210Z,1.10
2022-12-27T05:56:36.181Z,0.70
2022-12-27T05:57:36.166Z,0.60
2022-12-27T05:58:36.147Z,0.50
2022-12-27T05:59:36.148Z,0.60
2022-12-27T06:00:36.110Z,0.80
2022-12-27T06:01:36.210Z,0.70
2022-12-27T06:02:36.184Z,0.50
2022-12-27T06:03:36.164Z,0.70
2022-12-27T06:04:36.070Z,1.60
2022-12-27T06:05:36.057Z,2.30
2022-12-27T06:06:36.031Z,1.20
2022-12-27T06:07:36.021Z,0.90
2022-12-27T06:08:36.027Z,1.70
2022-12-27T06:09:36.006Z,1.10
2022-12-27T06:10:35.991Z,1.70
2022-12-27T06:11:35.976Z,3.30
2022-12-27T06:12:35.964Z,1.80
2022-12-27T06:13:35.965Z,0.70
2022-12-27T06:14:35.934Z,0.80
2022-12-27T06:15:35.930Z,0.50
2022-12-27T06:16:35.982Z,0.70
2022-12-27T06:17:35.894Z,0.70
2022-12-27T06:18:35.891Z,0.80
2022-12-27T06:19:35.881Z,0.80
2022-12-27T06:20:35.850Z,1.10
2022-12-27T06:21:35.848Z,0.70
2022-12-27T06:22:35.834Z,0.70
2022-12-27T06:23:35.839Z,0.70
2022-12-27T06:24:35.796Z,0.60
2022-12-27T06:25:35.787Z,0.80
2022-12-27T06:26:35.772Z,0.80
2022-12-27T06:27:35.788Z,0.50
2022-12-27T06:28:35.751Z,0.60
2022-12-27T06:29:35.739Z,0.80
2022-12-27T06:30:36.415Z,0.70
2022-12-27T06:31:35.742Z,1.00
2022-12-27T06:32:35.712Z,0.80
2022-12-27T06:33:35.692Z,0.90
2022-12-27T06:34:35.685Z,0.90
2022-12-27T06:35:35.672Z,0.90
2022-12-27T06:36:35.652Z,0.90
2022-12-27T06:37:35.657Z,1.00
2022-12-27T06:38:35.630Z,0.80
2022-12-27T06:39:35.637Z,0.80
2022-12-27T06:40:35.693Z,1.20
2022-12-27T06:41:35.625Z,1.10
2022-12-27T06:42:35.663Z,1.20
2022-12-27T06:43:35.587Z,1.00
2022-12-27T06:44:35.602Z,0.90
2022-12-27T06:45:35.622Z,0.90
2022-12-27T06:46:35.565Z,1.00
2022-12-27T06:47:35.526Z,1.10
2022-12-27T06:48:35.525Z,1.20
2022-12-27T06:49:35.510Z,0.80
2022-12-27T06:50:35.499Z,0.90
2022-12-27T06:51:35.481Z,1.10
2022-12-27T06:52:35.489Z,1.10
2022-12-27T06:53:35.465Z,1.30
2022-12-27T06:54:35.454Z,1.00
2022-12-27T06:55:35.417Z,1.30
2022-12-27T06:56:35.397Z,1.40
2022-12-27T06:57:35.388Z,1.40
2022-12-27T06:58:35.368Z,1.40
2022-12-27T06:59:35.358Z,1.10
2022-12-27T07:00:35.359Z,0.90
2022-12-27T07:01:35.474Z,1.10
2022-12-27T07:02:35.426Z,1.10
2022-12-27T07:03:35.315Z,1.00
2022-12-27T07:04:35.299Z,1.20
2022-12-27T07:05:35.337Z,1.10
2022-12-27T07:06:35.277Z,1.10
2022-12-27T07:07:35.261Z,1.40
2022-12-27T07:08:35.248Z,1.40
2022-12-27T07:09:35.243Z,1.30
2022-12-27T07:10:35.228Z,1.30
2022-12-27T07:11:35.234Z,1.00
2022-12-27T07:12:36.926Z,1.10
2022-12-27T07:13:35.218Z,1.10
2022-12-27T07:14:35.168Z,1.00
2022-12-27T07:15:35.169Z,1.00
2022-12-27T07:16:35.231Z,1.20
2022-12-27T07:17:35.155Z,1.40
2022-12-27T07:18:35.139Z,1.00
2022-12-27T07:19:35.119Z,1.10
2022-12-27T07:20:35.117Z,0.70
2022-12-27T07:21:35.084Z,1.00
2022-12-27T07:22:35.068Z,1.10
2022-12-27T07:23:35.085Z,0.90
2022-12-27T07:24:35.053Z,0.80
2022-12-27T07:25:35.034Z,1.20
2022-12-27T07:26:35.015Z,1.00
2022-12-27T07:27:35.007Z,1.10
2022-12-27T07:28:34.999Z,1.30
2022-12-27T07:29:36.369Z,1.10
2022-12-27T07:30:34.979Z,1.30
2022-12-27T07:31:35.013Z,1.30
2022-12-27T07:32:34.946Z,1.20
2022-12-27T07:33:34.934Z,1.30
2022-12-27T07:34:34.931Z,1.30
2022-12-27T07:35:34.904Z,1.20
2022-12-27T07:36:34.905Z,1.40
2022-12-27T07:37:34.887Z,1.40
2022-12-27T07:38:34.863Z,1.40
2022-12-27T07:39:34.860Z,2.90
2022-12-27T07:40:34.856Z,4.80
2022-12-27T07:41:34.827Z,3.90
2022-12-27T07:42:34.823Z,2.40
2022-12-27T07:43:34.809Z,2.20
2022-12-27T07:44:34.799Z,1.70
2022-12-27T07:45:34.845Z,2.10
2022-12-27T07:46:34.790Z,2.40
2022-12-27T07:47:34.750Z,2.10
2022-12-27T07:48:34.737Z,2.10
2022-12-27T07:49:34.729Z,2.00
2022-12-27T07:50:34.711Z,2.30
2022-12-27T07:51:34.707Z,2.10
2022-12-27T07:52:34.701Z,1.70
2022-12-27T07:53:34.708Z,1.80
2022-12-27T07:54:34.690Z,1.80
2022-12-27T07:55:34.673Z,1.50
2022-12-27T07:56:34.652Z,1.70
2022-12-27T07:57:34.685Z,1.60
2022-12-27T07:58:34.613Z,1.60
2022-12-27T07:59:34.643Z,1.80
2022-12-27T08:00:34.624Z,1.60
2022-12-27T08:01:34.655Z,1.90
2022-12-27T08:02:34.605Z,1.70
2022-12-27T08:03:34.590Z,1.70
2022-12-27T08:04:34.558Z,1.70
2022-12-27T08:05:34.544Z,1.50
2022-12-27T08:06:34.557Z,1.90
2022-12-27T08:07:34.513Z,1.80
2022-12-27T08:08:34.488Z,1.70
2022-12-27T08:09:34.490Z,1.60
2022-12-27T08:10:34.470Z,1.80
2022-12-27T08:11:34.464Z,1.70
2022-12-27T08:12:34.462Z,1.50
2022-12-27T08:13:34.431Z,1.60
2022-12-27T08:14:34.419Z,1.50
2022-12-27T08:15:34.404Z,1.80
2022-12-27T08:16:34.437Z,1.70
2022-12-27T08:17:34.389Z,1.60
2022-12-27T08:18:34.387Z,1.50
2022-12-27T08:19:34.365Z,1.60
2022-12-27T08:20:34.352Z,1.50
2022-12-27T08:21:34.331Z,1.50
2022-12-27T08:22:34.326Z,1.60
2022-12-27T08:23:34.314Z,1.60
2022-12-27T08:24:34.300Z,1.40
2022-12-27T08:25:34.274Z,1.70
2022-12-27T08:26:34.268Z,1.40
2022-12-27T08:27:34.255Z,1.50
2022-12-27T08:28:34.236Z,2.00
2022-12-27T08:29:34.238Z,2.00
2022-12-27T08:30:34.237Z,1.80
2022-12-27T08:31:34.225Z,1.80
2022-12-27T08:32:34.194Z,2.00
2022-12-27T08:33:34.195Z,1.60
2022-12-27T08:34:34.189Z,1.40
2022-12-27T08:35:52.098Z,1.40
2022-12-27T08:36:54.612Z,1.30
2022-12-27T08:37:34.155Z,1.80
2022-12-27T08:38:34.138Z,2.00
2022-12-27T08:39:34.115Z,2.30
2022-12-27T08:40:34.112Z,2.10
2022-12-27T08:41:34.098Z,2.60
2022-12-27T08:42:34.101Z,1.40
2022-12-27T08:43:34.050Z,1.50
2022-12-27T08:44:34.043Z,1.30
2022-12-27T08:45:34.039Z,1.40
2022-12-27T08:46:34.058Z,1.50
2022-12-27T08:47:34.005Z,1.20
2022-12-27T08:48:34.035Z,1.60
2022-12-27T08:49:33.981Z,1.20
2022-12-27T08:50:33.990Z,1.10
2022-12-27T08:51:40.669Z,1.00
2022-12-27T08:52:33.953Z,1.30
2022-12-27T08:53:33.929Z,1.60
2022-12-27T08:54:33.914Z,1.50
2022-12-27T08:55:33.916Z,1.40
2022-12-27T08:56:33.950Z,1.40
2022-12-27T08:57:33.881Z,1.20
2022-12-27T08:58:33.865Z,1.10
2022-12-27T08:59:33.851Z,1.50
2022-12-27T09:00:33.850Z,1.20
2022-12-27T09:01:33.981Z,1.10
2022-12-27T09:02:34.001Z,1.20
2022-12-27T09:03:33.847Z,1.10
2022-12-27T09:04:33.810Z,1.30
2022-12-27T09:05:38.100Z,1.30
2022-12-27T09:06:33.772Z,1.40
2022-12-27T09:07:33.764Z,2.40
2022-12-27T09:08:33.736Z,1.10
2022-12-27T09:09:33.736Z,1.00
2022-12-27T09:10:33.720Z,1.20
2022-12-27T09:11:33.711Z,1.20
2022-12-27T09:12:33.707Z,1.50
2022-12-27T09:13:33.685Z,1.40
2022-12-27T09:14:33.888Z,2.30
2022-12-27T09:15:33.671Z,1.20
2022-12-27T09:16:33.641Z,1.00
2022-12-27T09:17:33.644Z,1.10
2022-12-27T09:18:33.632Z,1.20
2022-12-27T09:19:33.600Z,1.20
2022-12-27T09:20:33.586Z,1.20
2022-12-27T09:21:33.587Z,1.10
2022-12-27T09:22:33.571Z,1.30
2022-12-27T09:23:33.567Z,1.20
2022-12-27T09:24:33.561Z,1.20
2022-12-27T09:25:33.555Z,1.30
2022-12-27T09:26:33.521Z,1.40
2022-12-27T09:27:33.513Z,1.20
2022-12-27T09:28:33.486Z,1.40
2022-12-27T09:29:33.473Z,1.20
2022-12-27T09:30:33.484Z,1.20
2022-12-27T09:31:33.509Z,0.80
2022-12-27T09:32:33.450Z,1.10
2022-12-27T09:33:33.444Z,0.70
2022-12-27T09:34:33.413Z,1.20
2022-12-27T09:35:38.447Z,1.20
2022-12-27T09:36:33.415Z,1.20
2022-12-27T09:37:33.373Z,0.60
2022-12-27T09:38:33.370Z,0.70
2022-12-27T09:39:33.343Z,0.90
2022-12-27T09:40:33.341Z,0.80
2022-12-27T09:42:33.817Z,0.70
2022-12-27T09:43:02.980Z,0.80
2022-12-27T09:43:33.319Z,0.80
2022-12-27T09:44:33.299Z,0.70
2022-12-27T09:45:33.285Z,0.70
2022-12-27T09:46:33.324Z,0.90
2022-12-27T09:47:33.265Z,0.70
2022-12-27T09:48:33.777Z,0.50
2022-12-27T09:49:33.223Z,0.60
2022-12-27T09:50:33.212Z,0.70
2022-12-27T09:51:33.199Z,0.70
2022-12-27T09:52:33.214Z,0.60
2022-12-27T09:53:33.217Z,0.50
2022-12-27T09:54:33.166Z,0.50
2022-12-27T09:55:33.173Z,0.80
2022-12-27T09:56:54.541Z,0.60
2022-12-27T09:57:33.136Z,0.60
2022-12-27T09:58:33.127Z,0.70
2022-12-27T09:59:33.093Z,0.60
2022-12-27T10:00:34.742Z,0.50
2022-12-27T10:01:33.325Z,0.60
2022-12-27T10:02:33.157Z,0.50
2022-12-27T10:03:33.037Z,0.40
2022-12-27T10:05:00.881Z,0.60
2022-12-27T10:05:33.116Z,0.60
2022-12-27T10:06:33.006Z,0.60
2022-12-27T10:07:32.997Z,0.40
2022-12-27T10:08:32.968Z,0.50
2022-12-27T10:09:32.953Z,0.50
2022-12-27T10:10:32.973Z,0.70
2022-12-27T10:11:32.953Z,0.70
2022-12-27T10:12:32.926Z,0.70
2022-12-27T10:13:32.915Z,0.80
2022-12-27T10:14:32.894Z,0.90
2022-12-27T10:15:32.896Z,0.60
2022-12-27T10:16:32.893Z,0.60
2022-12-27T10:17:32.855Z,0.50
2022-12-27T10:18:32.858Z,0.60
2022-12-27T10:19:32.827Z,0.60
2022-12-27T10:20:32.815Z,0.40
2022-12-27T10:21:32.828Z,0.50
2022-12-27T10:22:32.805Z,0.50
2022-12-27T10:23:32.790Z,0.60
2022-12-27T10:24:32.765Z,0.50
2022-12-27T10:25:32.747Z,0.60
2022-12-27T10:26:32.758Z,0.50
2022-12-27T10:27:32.757Z,0.50
2022-12-27T10:28:32.712Z,0.70
2022-12-27T10:29:32.739Z,0.50
2022-12-27T10:30:32.762Z,0.60
2022-12-27T10:31:32.708Z,0.30
2022-12-27T10:32:32.683Z,0.30
2022-12-27T10:33:32.663Z,0.50
2022-12-27T10:34:32.635Z,0.60
2022-12-27T10:35:32.622Z,0.60
2022-12-27T10:36:32.612Z,1.10
2022-12-27T10:37:32.610Z,0.40
2022-12-27T10:38:32.602Z,0.40
2022-12-27T10:39:32.562Z,0.30
2022-12-27T10:40:34.625Z,0.70
2022-12-27T10:41:32.559Z,0.40
2022-12-27T10:42:32.539Z,0.80
2022-12-27T10:43:32.542Z,0.50
2022-12-27T10:44:32.517Z,0.80
2022-12-27T10:45:32.539Z,0.40
2022-12-27T10:46:33.649Z,0.40
2022-12-27T10:47:32.469Z,0.50
2022-12-27T10:49:02.637Z,0.50
2022-12-27T10:49:32.467Z,0.40
2022-12-27T10:50:32.428Z,0.30
2022-12-27T10:51:32.461Z,0.70
2022-12-27T10:52:32.401Z,0.40
2022-12-27T10:53:32.394Z,0.50
2022-12-27T10:54:32.379Z,0.40
2022-12-27T10:55:32.359Z,0.40
2022-12-27T10:56:32.376Z,0.50
2022-12-27T10:57:32.347Z,0.50
2022-12-27T10:58:32.340Z,0.40
2022-12-27T10:59:32.327Z,0.60
2022-12-27T11:00:32.314Z,0.60
2022-12-27T11:01:32.489Z,0.60
2022-12-27T11:02:32.413Z,0.40
2022-12-27T11:03:32.262Z,0.60
2022-12-27T11:04:32.286Z,0.60
2022-12-27T11:05:32.238Z,0.60
2022-12-27T11:06:32.247Z,0.40
2022-12-27T11:07:32.218Z,0.40
2022-12-27T11:08:32.200Z,0.60
2022-12-27T11:09:32.176Z,0.50
2022-12-27T11:10:32.198Z,0.50
2022-12-27T11:11:32.185Z,0.40
2022-12-27T11:12:32.166Z,0.40
2022-12-27T11:13:32.160Z,0.60
2022-12-27T11:14:32.133Z,0.70
2022-12-27T11:15:32.185Z,0.50
2022-12-27T11:16:32.155Z,0.40
2022-12-27T11:17:32.143Z,0.60
2022-12-27T11:18:32.071Z,0.50
2022-12-27T11:19:32.069Z,0.60
2022-12-27T11:20:32.072Z,0.40
2022-12-27T11:21:32.062Z,0.40
2022-12-27T11:22:32.031Z,0.70
2022-12-27T11:23:32.050Z,0.60
2022-12-27T11:24:32.010Z,0.60
2022-12-27T11:25:31.992Z,0.80
2022-12-27T11:26:32.038Z,0.40
2022-12-27T11:27:31.966Z,1.20
2022-12-27T11:28:31.943Z,0.60
2022-12-27T11:29:31.931Z,0.50
2022-12-27T11:30:31.933Z,0.60
2022-12-27T11:31:32.017Z,0.80
2022-12-27T11:32:31.888Z,0.50
2022-12-27T11:33:31.895Z,0.50
2022-12-27T11:34:31.883Z,0.50
2022-12-27T11:35:31.853Z,0.60
2022-12-27T11:36:31.845Z,0.60
2022-12-27T11:37:31.833Z,0.30
2022-12-27T11:38:31.812Z,0.50
2022-12-27T11:39:31.809Z,0.60
2022-12-27T11:40:31.864Z,0.50
2022-12-27T11:41:31.786Z,0.60
2022-12-27T11:42:31.763Z,0.80
2022-12-27T11:43:31.752Z,0.90
2022-12-27T11:44:31.780Z,0.80
2022-12-27T11:45:31.759Z,0.80
2022-12-27T11:46:31.772Z,0.50
2022-12-27T11:47:31.718Z,0.70
2022-12-27T11:48:31.716Z,0.90
2022-12-27T11:49:31.709Z,0.30
2022-12-27T11:50:31.687Z,0.60
2022-12-27T11:51:31.679Z,0.60
2022-12-27T11:52:31.672Z,0.70
2022-12-27T11:53:31.650Z,0.80
2022-12-27T11:54:31.638Z,0.60
2022-12-27T11:55:31.604Z,0.40
2022-12-27T11:56:31.621Z,0.70
2022-12-27T11:57:31.592Z,0.60
2022-12-27T11:58:31.562Z,0.60
2022-12-27T11:59:31.552Z,0.70
2022-12-27T12:00:31.557Z,0.80
2022-12-27T12:01:31.565Z,0.50
2022-12-27T12:02:31.548Z,0.60
2022-12-27T12:03:31.592Z,0.50
2022-12-27T12:04:31.484Z,0.80
2022-12-27T12:05:31.475Z,0.50
2022-12-27T12:06:34.638Z,0.80
2022-12-27T12:07:31.446Z,0.80
2022-12-27T12:08:31.432Z,0.70
2022-12-27T12:09:31.448Z,0.70
2022-12-27T12:10:31.414Z,0.90
2022-12-27T12:11:31.389Z,0.90
2022-12-27T12:12:31.522Z,1.00
2022-12-27T12:13:31.366Z,0.80
2022-12-27T12:14:31.356Z,0.90
2022-12-27T12:15:31.351Z,1.10
2022-12-27T12:16:31.389Z,0.90
2022-12-27T12:17:35.868Z,0.70
2022-12-27T12:18:31.314Z,0.90
2022-12-27T12:19:31.295Z,1.00
2022-12-27T12:20:31.285Z,0.90
2022-12-27T12:21:31.284Z,0.90
2022-12-27T12:22:31.268Z,0.60
2022-12-27T12:23:31.247Z,0.60
2022-12-27T12:24:31.226Z,0.90
2022-12-27T12:25:31.241Z,0.90
2022-12-27T12:26:31.209Z,0.60
2022-12-27T12:27:31.196Z,0.60
2022-12-27T12:28:56.876Z,0.80
2022-12-27T12:29:31.206Z,0.90
2022-12-27T12:30:31.187Z,1.00
2022-12-27T12:31:31.146Z,1.10
2022-12-27T12:32:31.144Z,1.60
2022-12-27T12:33:31.120Z,1.00
2022-12-27T12:34:31.137Z,0.90
2022-12-27T12:35:31.087Z,0.90
2022-12-27T12:36:31.091Z,0.80
2022-12-27T12:37:31.060Z,0.80
2022-12-27T12:38:31.070Z,1.10
2022-12-27T12:39:31.045Z,0.70
2022-12-27T12:40:31.039Z,1.00
2022-12-27T12:41:31.014Z,1.30
2022-12-27T12:42:31.046Z,0.90
2022-12-27T12:43:31.001Z,0.80
2022-12-27T12:44:31.753Z,1.10
2022-12-27T12:45:31.056Z,0.80
2022-12-27T12:46:30.965Z,0.70
2022-12-27T12:47:30.927Z,0.60
2022-12-27T12:48:30.933Z,0.80
2022-12-27T12:49:30.930Z,1.00
2022-12-27T12:50:30.899Z,1.00
2022-12-27T12:51:30.925Z,0.70
2022-12-27T12:52:30.886Z,0.60
2022-12-27T12:53:32.765Z,0.80
2022-12-27T12:54:37.503Z,0.70
2022-12-27T12:55:36.586Z,1.00
2022-12-27T12:56:30.823Z,0.70
2022-12-27T12:57:30.818Z,0.80
2022-12-27T12:58:30.802Z,0.80
2022-12-27T12:59:30.799Z,0.80
2022-12-27T13:00:30.777Z,0.80
2022-12-27T13:01:30.924Z,1.00
2022-12-27T13:02:30.969Z,0.90
2022-12-27T13:03:30.840Z,0.70
2022-12-27T13:04:30.758Z,1.00
2022-12-27T13:05:30.716Z,1.00
2022-12-27T13:06:30.836Z,0.80
2022-12-27T13:07:36.102Z,0.60
2022-12-27T13:08:30.675Z,0.90
2022-12-27T13:09:30.657Z,1.00
2022-12-27T13:10:30.663Z,0.90
2022-12-27T13:11:30.645Z,1.10
2022-12-27T13:12:30.643Z,0.70
2022-12-27T13:13:30.658Z,1.20
2022-12-27T13:14:30.594Z,0.80
2022-12-27T13:15:30.597Z,1.10
2022-12-27T13:16:30.652Z,1.00
2022-12-27T13:17:30.560Z,0.70
2022-12-27T13:18:30.980Z,0.80